Time;durP1;ratioP1;P1;durP2;ratioP2;P2;SDS_P1;SDS_P2;PMS_P1;PMS_P2;Temp;Humidity;BMP_temperature;BMP_pressure;BME280_temperature;BME280_humidity;BME280_pressure;Samples;Min_cycle;Max_cycle;Signal;HPM_P1;HPM_P2
2023/07/17 00:01:33;;;;;;;5.25;1.42;;;17.10;99.90;;;;;;5065476;28;20401;-71
2023/07/17 00:03:59;;;;;;;7.10;1.40;;;17.00;99.90;;;;;;5061981;28;20460;-70
2023/07/17 00:06:24;;;;;;;5.82;1.48;;;17.00;99.90;;;;;;5068140;28;20050;-70
2023/07/17 00:08:50;;;;;;;5.65;2.15;;;16.90;99.90;;;;;;5066868;28;20032;-68
2023/07/17 00:11:16;;;;;;;5.35;2.00;;;16.90;99.90;;;;;;5066164;28;20036;-69
2023/07/17 00:13:41;;;;;;;4.65;1.50;;;16.90;99.90;;;;;;5070380;28;20032;-68
2023/07/17 00:16:07;;;;;;;5.85;1.90;;;16.80;99.90;;;;;;5068146;28;20043;-69
2023/07/17 00:18:34;;;;;;;6.25;2.03;;;16.90;99.90;;;;;;5067190;28;20473;-69
2023/07/17 00:21:00;;;;;;;5.70;1.90;;;16.80;99.90;;;;;;5069734;28;20110;-69
2023/07/17 00:23:26;;;;;;;5.57;1.67;;;16.80;99.90;;;;;;5067707;28;20055;-69
2023/07/17 00:25:52;;;;;;;7.45;1.88;;;16.70;99.90;;;;;;5067309;28;20036;-69
2023/07/17 00:28:17;;;;;;;9.02;2.00;;;16.80;99.90;;;;;;5066374;28;20400;-69
2023/07/17 00:30:43;;;;;;;7.47;1.95;;;16.70;99.90;;;;;;5066708;28;20086;-68
2023/07/17 00:33:09;;;;;;;5.10;1.88;;;16.70;99.90;;;;;;5066159;28;20024;-69
2023/07/17 00:35:34;;;;;;;6.05;1.60;;;16.60;99.90;;;;;;5065605;28;20103;-70
2023/07/17 00:38:00;;;;;;;4.97;2.03;;;16.60;99.90;;;;;;5068094;28;20034;-70
2023/07/17 00:40:25;;;;;;;6.05;2.22;;;16.60;99.90;;;;;;5067395;28;20028;-70
2023/07/17 00:42:59;;;;;;;4.72;2.30;;;16.60;99.90;;;;;;5067959;28;20607;-69
2023/07/17 00:45:26;;;;;;;8.68;2.88;;;16.60;99.90;;;;;;5068746;28;20391;-70
2023/07/17 00:47:52;;;;;;;5.25;2.40;;;16.50;99.90;;;;;;5067097;28;20036;-70
2023/07/17 00:50:19;;;;;;;5.65;2.08;;;16.40;99.90;;;;;;5066415;28;20380;-70
2023/07/17 00:52:44;;;;;;;8.90;2.47;;;16.40;99.90;;;;;;5065870;28;20818;-69
2023/07/17 00:55:12;;;;;;;7.55;2.20;;;16.30;99.90;;;;;;5067962;28;20108;-70
2023/07/17 00:57:39;;;;;;;4.47;2.33;;;16.30;99.90;;;;;;5067752;28;20040;-70
2023/07/17 01:00:08;;;;;;;6.93;2.13;;;16.30;99.90;;;;;;5066514;28;20082;-69
2023/07/17 01:02:33;;;;;;;5.00;2.42;;;16.30;99.90;;;;;;5065344;28;20036;-70
2023/07/17 01:04:59;;;;;;;10.50;2.25;;;16.30;99.90;;;;;;5067895;28;20533;-70
2023/07/17 01:07:25;;;;;;;6.38;1.90;;;16.30;99.90;;;;;;5068563;28;20040;-69
2023/07/17 01:09:51;;;;;;;4.60;2.20;;;16.30;99.90;;;;;;5062373;28;20028;-70
2023/07/17 01:12:17;;;;;;;5.00;2.17;;;16.20;99.90;;;;;;5068087;28;20024;-70
2023/07/17 01:14:43;;;;;;;3.67;1.85;;;16.20;99.90;;;;;;5066300;28;20101;-70
2023/07/17 01:17:08;;;;;;;7.05;2.22;;;16.20;99.90;;;;;;5067309;28;20033;-69
2023/07/17 01:19:34;;;;;;;7.13;2.65;;;16.20;99.90;;;;;;5066487;28;20024;-70
2023/07/17 01:22:04;;;;;;;4.93;1.98;;;16.10;99.90;;;;;;5066646;28;20033;-69
2023/07/17 01:24:29;;;;;;;8.13;2.33;;;16.20;99.90;;;;;;5063942;28;20048;-71
2023/07/17 01:26:55;;;;;;;6.60;2.30;;;16.10;99.90;;;;;;5064507;28;20472;-70
2023/07/17 01:29:21;;;;;;;9.10;2.63;;;16.10;99.90;;;;;;5063219;28;20025;-70
2023/07/17 01:31:46;;;;;;;5.45;2.72;;;16.00;99.90;;;;;;5068841;28;20145;-69
2023/07/17 01:34:12;;;;;;;7.05;2.40;;;16.00;99.90;;;;;;5066588;28;20103;-69
2023/07/17 01:36:37;;;;;;;8.50;2.28;;;15.90;99.90;;;;;;5068251;28;20041;-69
2023/07/17 01:39:03;;;;;;;6.57;2.50;;;15.90;99.90;;;;;;5066260;28;20472;-69
2023/07/17 01:41:29;;;;;;;8.02;3.00;;;15.90;99.90;;;;;;5068630;28;20060;-70
2023/07/17 01:43:54;;;;;;;9.82;2.95;;;15.80;99.90;;;;;;5065712;28;20028;-69
2023/07/17 01:46:20;;;;;;;8.98;3.05;;;15.80;99.90;;;;;;5066548;28;20373;-70
2023/07/17 01:48:45;;;;;;;8.27;2.80;;;15.80;99.90;;;;;;5071031;28;20032;-69
2023/07/17 01:51:11;;;;;;;9.77;2.85;;;15.70;99.90;;;;;;5068971;28;20029;-70
2023/07/17 01:53:36;;;;;;;7.68;2.83;;;15.70;99.90;;;;;;5070688;28;20090;-70
2023/07/17 01:56:02;;;;;;;7.57;2.72;;;15.60;99.90;;;;;;5063665;28;20503;-70
2023/07/17 01:58:28;;;;;;;7.18;2.13;;;15.60;99.90;;;;;;5069109;28;20497;-69
2023/07/17 02:00:57;;;;;;;6.75;2.17;;;15.50;99.90;;;;;;5069793;28;20021;-70
2023/07/17 02:03:23;;;;;;;7.90;2.22;;;15.50;99.90;;;;;;5069470;28;20059;-70
2023/07/17 02:05:52;;;;;;;8.43;2.47;;;15.50;99.90;;;;;;5069286;28;20040;-70
2023/07/17 02:08:17;;;;;;;9.48;2.35;;;15.40;99.90;;;;;;5071131;28;20032;-70
2023/07/17 02:10:43;;;;;;;5.82;2.15;;;15.40;99.90;;;;;;5069884;28;20549;-70
2023/07/17 02:13:09;;;;;;;9.82;2.90;;;15.40;99.90;;;;;;5071496;28;20029;-69
2023/07/17 02:15:35;;;;;;;9.57;2.78;;;15.30;99.90;;;;;;5070989;28;20079;-70
2023/07/17 02:18:01;;;;;;;7.97;2.47;;;15.30;99.90;;;;;;5071026;28;20098;-70
2023/07/17 02:20:27;;;;;;;6.30;2.42;;;15.20;99.90;;;;;;5070525;28;20055;-70
2023/07/17 02:22:52;;;;;;;8.60;2.72;;;15.20;99.90;;;;;;5068690;28;20036;-70
2023/07/17 02:25:18;;;;;;;7.35;2.72;;;15.20;99.90;;;;;;5070904;28;20100;-70
2023/07/17 02:27:44;;;;;;;5.40;2.92;;;15.20;99.90;;;;;;5070807;28;20115;-69
2023/07/17 02:30:10;;;;;;;11.20;3.53;;;15.10;99.90;;;;;;5069372;28;20439;-70
2023/07/17 02:32:36;;;;;;;7.07;2.92;;;15.10;99.90;;;;;;5067685;28;20068;-70
2023/07/17 02:35:02;;;;;;;11.15;2.75;;;15.00;99.90;;;;;;5069919;28;20032;-70
2023/07/17 02:37:28;;;;;;;8.50;2.38;;;15.00;99.90;;;;;;5067954;28;20066;-69
2023/07/17 02:39:53;;;;;;;18.67;2.45;;;15.00;99.90;;;;;;5072470;28;20062;-70
2023/07/17 02:42:19;;;;;;;9.20;2.30;;;14.90;99.90;;;;;;5069097;28;20082;-70
2023/07/17 02:44:46;;;;;;;6.32;2.72;;;14.90;99.90;;;;;;5069292;28;20663;-70
2023/07/17 02:47:11;;;;;;;6.70;2.50;;;14.80;99.90;;;;;;5071349;28;20037;-70
2023/07/17 02:49:38;;;;;;;5.38;2.42;;;14.80;99.90;;;;;;5069451;28;20082;-69
2023/07/17 02:52:07;;;;;;;8.40;2.05;;;14.80;99.90;;;;;;5068463;28;20031;-69
2023/07/17 02:54:34;;;;;;;7.20;2.70;;;14.80;99.90;;;;;;5068278;28;20480;-69
2023/07/17 02:56:59;;;;;;;10.85;2.40;;;14.70;99.90;;;;;;5063372;28;20035;-69
2023/07/17 02:59:25;;;;;;;7.55;2.97;;;14.70;99.90;;;;;;5068317;28;20044;-69
2023/07/17 03:01:50;;;;;;;7.85;3.42;;;14.70;99.90;;;;;;5065994;28;20043;-69
2023/07/17 03:04:16;;;;;;;6.63;2.63;;;14.60;99.90;;;;;;5072103;28;20024;-69
2023/07/17 03:06:41;;;;;;;6.18;2.65;;;14.60;99.90;;;;;;5069603;28;20043;-69
2023/07/17 03:09:07;;;;;;;9.93;3.10;;;14.60;99.90;;;;;;5067371;28;20461;-69
2023/07/17 03:11:33;;;;;;;5.38;2.80;;;14.60;99.90;;;;;;5066719;28;20039;-69
2023/07/17 03:13:59;;;;;;;7.63;2.83;;;14.60;99.90;;;;;;5071838;28;20470;-69
2023/07/17 03:16:24;;;;;;;7.82;2.50;;;14.60;99.90;;;;;;5068770;28;20107;-69
2023/07/17 03:18:53;;;;;;;9.30;2.83;;;14.50;99.90;;;;;;5068248;28;20025;-69
2023/07/17 03:21:19;;;;;;;9.93;2.88;;;14.50;99.90;;;;;;5067130;28;20456;-69
2023/07/17 03:23:45;;;;;;;8.48;2.67;;;14.50;99.90;;;;;;5068510;28;20025;-69
2023/07/17 03:26:10;;;;;;;7.97;2.45;;;14.40;99.90;;;;;;5069471;28;20036;-69
2023/07/17 03:28:37;;;;;;;7.25;2.80;;;14.40;99.90;;;;;;5063508;28;20075;-69
2023/07/17 03:31:02;;;;;;;7.60;2.58;;;14.40;99.90;;;;;;5066010;28;20037;-69
2023/07/17 03:33:28;;;;;;;9.13;3.67;;;14.40;99.90;;;;;;5067180;28;20021;-69
2023/07/17 03:35:54;;;;;;;9.35;2.33;;;14.40;99.90;;;;;;5070434;28;20054;-69
2023/07/17 03:38:19;;;;;;;9.68;3.50;;;14.40;99.90;;;;;;5069852;28;20135;-69
2023/07/17 03:40:45;;;;;;;10.77;3.03;;;14.40;99.90;;;;;;5068509;28;20032;-69
2023/07/17 03:43:10;;;;;;;8.25;3.40;;;14.30;99.90;;;;;;5068551;28;20032;-70
2023/07/17 03:45:36;;;;;;;6.90;2.75;;;14.30;99.90;;;;;;5066848;28;20096;-69
2023/07/17 03:48:01;;;;;;;9.00;3.13;;;14.30;99.90;;;;;;5070539;28;20047;-69
2023/07/17 03:50:27;;;;;;;7.00;2.53;;;14.30;99.90;;;;;;5070639;28;20461;-69
2023/07/17 03:52:52;;;;;;;9.38;3.70;;;14.30;99.90;;;;;;5067464;28;20473;-69
2023/07/17 03:55:18;;;;;;;15.27;4.50;;;14.30;99.90;;;;;;5069682;28;20185;-69
2023/07/17 03:57:43;;;;;;;8.50;2.60;;;14.30;99.90;;;;;;5067358;28;20025;-69
2023/07/17 04:00:13;;;;;;;7.25;2.55;;;14.30;99.90;;;;;;5069093;28;20104;-70
2023/07/17 04:02:39;;;;;;;9.65;3.00;;;14.30;99.90;;;;;;5065728;28;20405;-69
2023/07/17 04:05:06;;;;;;;9.63;3.28;;;14.30;99.90;;;;;;5054488;28;20024;-69
2023/07/17 04:07:31;;;;;;;5.57;2.40;;;14.30;99.90;;;;;;5066422;28;20036;-70
2023/07/17 04:09:57;;;;;;;10.77;2.80;;;14.30;99.90;;;;;;5068444;28;20473;-69
2023/07/17 04:12:22;;;;;;;10.52;3.10;;;14.30;99.90;;;;;;5067366;28;20032;-69
2023/07/17 04:14:48;;;;;;;9.32;3.40;;;14.30;99.90;;;;;;5068792;28;20032;-69
2023/07/17 04:17:13;;;;;;;7.82;2.67;;;14.30;99.90;;;;;;5069246;28;20040;-69
2023/07/17 04:19:39;;;;;;;11.35;3.30;;;14.30;99.90;;;;;;5070011;28;20023;-70
2023/07/17 04:22:04;;;;;;;10.00;3.45;;;14.30;99.90;;;;;;5062830;28;20028;-70
2023/07/17 04:24:30;;;;;;;14.93;3.83;;;14.30;99.90;;;;;;5063129;28;20029;-69
2023/07/17 04:26:55;;;;;;;9.07;3.65;;;14.40;99.90;;;;;;5068676;28;20037;-69
2023/07/17 04:29:24;;;;;;;10.55;2.60;;;14.40;99.90;;;;;;5069680;28;20098;-70
2023/07/17 04:31:50;;;;;;;11.35;3.08;;;14.40;99.90;;;;;;5067748;28;20096;-69
2023/07/17 04:34:16;;;;;;;9.77;3.10;;;14.40;99.90;;;;;;5067709;28;20029;-69
2023/07/17 04:36:41;;;;;;;8.00;2.88;;;14.40;99.90;;;;;;5068419;28;20098;-69
2023/07/17 04:39:07;;;;;;;12.60;3.03;;;14.40;99.90;;;;;;5065602;28;20032;-69
2023/07/17 04:41:32;;;;;;;9.57;3.17;;;14.50;99.90;;;;;;5068285;28;20029;-70
2023/07/17 04:43:58;;;;;;;11.48;3.38;;;14.50;99.90;;;;;;5062636;28;20032;-69
2023/07/17 04:46:25;;;;;;;7.18;2.90;;;14.50;99.90;;;;;;5067637;28;20457;-70
2023/07/17 04:48:50;;;;;;;10.77;3.67;;;14.60;99.90;;;;;;5069051;28;20099;-69
2023/07/17 04:51:16;;;;;;;7.90;3.40;;;14.60;99.90;;;;;;5070332;28;20112;-69
2023/07/17 04:53:41;;;;;;;13.38;3.40;;;14.60;99.90;;;;;;5059077;28;20032;-68
2023/07/17 04:56:07;;;;;;;9.07;3.40;;;14.70;99.90;;;;;;5069520;28;20032;-69
2023/07/17 04:58:32;;;;;;;6.43;3.05;;;14.70;99.90;;;;;;5066466;28;20028;-69
2023/07/17 05:00:59;;;;;;;11.80;3.80;;;14.80;99.90;;;;;;5067610;28;20392;-69
2023/07/17 05:03:24;;;;;;;10.52;3.72;;;14.80;99.90;;;;;;5064731;28;20087;-69
2023/07/17 05:05:50;;;;;;;8.50;3.60;;;15.00;99.90;;;;;;5066036;28;20057;-69
2023/07/17 05:08:17;;;;;;;10.93;2.67;;;15.20;99.90;;;;;;5068599;28;20669;-69
2023/07/17 05:10:43;;;;;;;9.85;3.03;;;15.40;99.90;;;;;;5077591;28;22141;-69
2023/07/17 05:13:08;;;;;;;7.57;2.53;;;15.70;99.90;;;;;;5066661;28;20032;-69
2023/07/17 05:15:34;;;;;;;9.20;3.75;;;15.80;99.90;;;;;;5067784;28;20040;-71
2023/07/17 05:18:00;;;;;;;13.07;4.07;;;15.90;99.90;;;;;;5068201;28;20031;-70
2023/07/17 05:20:25;;;;;;;10.70;3.55;;;16.00;99.90;;;;;;5059791;28;20021;-70
2023/07/17 05:22:51;;;;;;;8.80;3.15;;;16.30;99.90;;;;;;5069822;28;20075;-70
2023/07/17 05:25:16;;;;;;;10.20;3.95;;;16.50;99.90;;;;;;5072828;28;20043;-70
2023/07/17 05:27:42;;;;;;;10.50;4.05;;;16.70;99.90;;;;;;5071832;28;20514;-70
2023/07/17 05:30:08;;;;;;;12.10;4.88;;;16.90;99.90;;;;;;5072266;28;20104;-70
2023/07/17 05:32:34;;;;;;;14.50;4.10;;;17.10;99.90;;;;;;5061680;28;20032;-71
2023/07/17 05:34:59;;;;;;;12.20;4.72;;;17.20;99.90;;;;;;5065461;28;20025;-70
2023/07/17 05:37:25;;;;;;;10.23;4.45;;;17.20;99.90;;;;;;5067438;28;20106;-70
2023/07/17 05:39:50;;;;;;;10.60;4.43;;;17.30;99.90;;;;;;5068906;28;20031;-70
2023/07/17 05:42:16;;;;;;;11.63;4.85;;;17.40;99.90;;;;;;5067376;28;20036;-70
2023/07/17 05:44:41;;;;;;;12.30;4.45;;;17.50;99.90;;;;;;5072120;28;20040;-71
2023/07/17 05:47:07;;;;;;;14.70;4.95;;;17.60;99.90;;;;;;5070638;28;20036;-70
2023/07/17 05:49:32;;;;;;;11.95;4.65;;;17.70;99.90;;;;;;5066956;28;20024;-70
2023/07/17 05:51:58;;;;;;;11.55;4.97;;;17.70;99.90;;;;;;5072339;28;20064;-71
2023/07/17 05:54:24;;;;;;;10.70;5.03;;;17.60;99.90;;;;;;5067812;28;20074;-71
2023/07/17 05:56:49;;;;;;;14.10;5.85;;;17.60;99.90;;;;;;5070561;28;20377;-71
2023/07/17 05:59:15;;;;;;;11.20;5.40;;;17.50;99.90;;;;;;5069771;28;20031;-72
2023/07/17 06:01:41;;;;;;;12.90;5.40;;;17.50;99.90;;;;;;5070164;28;20059;-71
2023/07/17 06:04:07;;;;;;;12.50;4.80;;;17.40;99.90;;;;;;5073278;28;20028;-71
2023/07/17 06:06:33;;;;;;;14.30;6.25;;;17.50;99.90;;;;;;5066590;28;20063;-71
2023/07/17 06:09:01;;;;;;;10.50;4.55;;;17.40;99.90;;;;;;5070409;28;20072;-71
2023/07/17 06:11:27;;;;;;;15.48;6.28;;;17.40;99.90;;;;;;5069105;28;20032;-70
2023/07/17 06:13:52;;;;;;;14.60;5.45;;;17.40;99.90;;;;;;5069934;28;20035;-71
2023/07/17 06:16:18;;;;;;;13.55;5.38;;;17.40;99.90;;;;;;5066900;28;20036;-71
2023/07/17 06:18:44;;;;;;;14.73;5.53;;;17.40;99.90;;;;;;5065719;28;20035;-70
2023/07/17 06:21:10;;;;;;;16.13;6.63;;;17.40;99.90;;;;;;5068038;28;20029;-71
2023/07/17 06:23:35;;;;;;;14.35;5.65;;;17.50;99.90;;;;;;5065526;28;20024;-71
2023/07/17 06:26:01;;;;;;;14.18;5.93;;;17.50;99.90;;;;;;5068864;28;20117;-70
2023/07/17 06:28:29;;;;;;;14.38;5.22;;;17.50;99.90;;;;;;5071524;28;20025;-70
2023/07/17 06:30:54;;;;;;;12.98;6.07;;;17.60;99.90;;;;;;5061279;28;20025;-70
2023/07/17 06:33:20;;;;;;;14.80;5.47;;;17.60;99.90;;;;;;5065405;28;20146;-70
2023/07/17 06:35:45;;;;;;;15.07;6.20;;;17.60;99.90;;;;;;5069092;28;20040;-75
2023/07/17 06:38:11;;;;;;;11.32;5.20;;;17.60;99.90;;;;;;5072919;28;20048;-72
2023/07/17 06:40:38;;;;;;;15.75;6.05;;;17.70;99.90;;;;;;5060949;28;20029;-71
2023/07/17 06:43:03;;;;;;;20.30;5.47;;;17.70;99.90;;;;;;5070959;28;20021;-71
2023/07/17 06:45:29;;;;;;;13.85;5.22;;;17.70;99.90;;;;;;5068012;28;20047;-72
2023/07/17 06:47:55;;;;;;;15.02;5.32;;;17.80;99.90;;;;;;5071897;28;20028;-71
2023/07/17 06:50:20;;;;;;;15.95;5.70;;;17.80;99.90;;;;;;5066099;28;20476;-71
2023/07/17 06:52:46;;;;;;;18.25;6.93;;;18.00;99.90;;;;;;5064161;28;20029;-71
2023/07/17 06:55:11;;;;;;;12.50;6.00;;;18.00;99.90;;;;;;5063893;28;20082;-71
2023/07/17 06:57:37;;;;;;;16.73;5.07;;;18.10;99.90;;;;;;5070849;28;20070;-71
2023/07/17 07:00:05;;;;;;;12.82;4.95;;;18.30;99.90;;;;;;5064910;28;20115;-71
2023/07/17 07:02:31;;;;;;;17.13;5.15;;;18.40;99.90;;;;;;5063072;28;20037;-72
2023/07/17 07:04:57;;;;;;;11.75;5.03;;;18.40;99.90;;;;;;5067254;28;20074;-72
2023/07/17 07:07:22;;;;;;;15.77;4.82;;;18.30;99.90;;;;;;5065157;28;20036;-72
2023/07/17 07:09:48;;;;;;;11.98;4.15;;;18.20;99.90;;;;;;5070799;28;20490;-72
2023/07/17 07:12:14;;;;;;;11.48;4.72;;;18.10;99.90;;;;;;5068750;28;20028;-72
2023/07/17 07:14:40;;;;;;;16.55;4.20;;;18.10;99.90;;;;;;5070034;28;20112;-72
2023/07/17 07:17:06;;;;;;;14.63;4.75;;;18.10;99.90;;;;;;5071076;28;20024;-72
2023/07/17 07:19:31;;;;;;;14.50;4.90;;;18.10;99.90;;;;;;5068871;28;20038;-72
2023/07/17 07:22:00;;;;;;;12.57;4.78;;;18.10;99.90;;;;;;5069976;28;20036;-72
2023/07/17 07:24:33;;;;;;;12.15;3.95;;;18.20;99.90;;;;;;5066478;28;20483;-72
2023/07/17 07:26:59;;;;;;;9.00;3.42;;;18.30;99.90;;;;;;5065503;28;20025;-72
2023/07/17 07:29:24;;;;;;;12.30;3.97;;;18.30;99.90;;;;;;5070039;28;20066;-71
2023/07/17 07:31:51;;;;;;;11.07;4.32;;;18.30;99.90;;;;;;5070894;28;20029;-72
2023/07/17 07:34:16;;;;;;;21.88;5.65;;;18.30;99.90;;;;;;5064660;28;20434;-72
2023/07/17 07:36:42;;;;;;;11.18;4.47;;;18.40;99.90;;;;;;5059212;28;20064;-72
2023/07/17 07:39:07;;;;;;;15.13;4.38;;;18.50;99.90;;;;;;5068084;28;20020;-72
2023/07/17 07:41:34;;;;;;;13.48;4.65;;;18.50;99.90;;;;;;5063517;28;20476;-72
2023/07/17 07:44:00;;;;;;;14.50;4.53;;;18.60;99.90;;;;;;5064819;28;20540;-72
2023/07/17 07:46:27;;;;;;;11.40;3.70;;;18.60;99.90;;;;;;5058266;28;20025;-72
2023/07/17 07:48:53;;;;;;;12.73;3.95;;;18.70;99.90;;;;;;5064055;28;20017;-72
2023/07/17 07:51:18;;;;;;;10.68;3.65;;;18.70;99.90;;;;;;5061021;28;20047;-72
2023/07/17 07:53:44;;;;;;;9.55;3.67;;;18.80;99.90;;;;;;5057697;28;20020;-71
2023/07/17 07:56:09;;;;;;;9.43;3.20;;;19.00;99.90;;;;;;5064235;28;20154;-72
2023/07/17 07:58:35;;;;;;;9.77;4.05;;;19.20;99.90;;;;;;5064609;28;20051;-72
2023/07/17 08:01:01;;;;;;;9.75;3.80;;;19.40;99.90;;;;;;5068667;28;20503;-73
2023/07/17 08:03:29;;;;;;;9.57;3.80;;;19.50;99.90;;;;;;5070204;28;20051;-72
2023/07/17 08:05:55;;;;;;;11.52;4.35;;;19.60;99.90;;;;;;5064711;28;20085;-72
2023/07/17 08:08:21;;;;;;;8.60;3.65;;;19.60;99.90;;;;;;5066017;28;20036;-72
2023/07/17 08:10:46;;;;;;;7.55;3.80;;;19.80;99.90;;;;;;5067871;28;20021;-73
2023/07/17 08:13:12;;;;;;;12.73;3.88;;;19.90;99.90;;;;;;5069855;28;20391;-72
2023/07/17 08:15:37;;;;;;;8.68;3.03;;;20.10;99.90;;;;;;5063105;28;20463;-72
2023/07/17 08:18:03;;;;;;;8.90;3.50;;;20.20;99.90;;;;;;5055364;28;20074;-72
2023/07/17 08:20:29;;;;;;;9.27;3.63;;;20.30;99.90;;;;;;5061565;28;20025;-72
2023/07/17 08:22:55;;;;;;;8.75;3.60;;;20.60;99.90;;;;;;5068952;28;20039;-72
2023/07/17 08:25:22;;;;;;;8.07;2.95;;;20.60;99.90;;;;;;5061527;28;20028;-72
2023/07/17 08:27:48;;;;;;;9.50;3.17;;;20.40;99.90;;;;;;5067366;28;20047;-72
2023/07/17 08:30:13;;;;;;;7.55;2.97;;;20.40;99.90;;;;;;5066671;28;20020;-72
2023/07/17 08:32:39;;;;;;;8.10;3.30;;;20.20;99.90;;;;;;5064713;28;20035;-72
2023/07/17 08:35:05;;;;;;;10.82;4.05;;;20.00;99.90;;;;;;5064474;28;20374;-72
2023/07/17 08:37:31;;;;;;;8.57;3.50;;;19.80;99.90;;;;;;5066412;28;20056;-72
2023/07/17 08:39:56;;;;;;;7.35;2.78;;;19.80;99.90;;;;;;5058538;28;20652;-72
2023/07/17 08:42:22;;;;;;;11.20;2.72;;;20.00;99.90;;;;;;5058327;28;20410;-72
2023/07/17 08:44:48;;;;;;;6.20;2.78;;;20.00;99.90;;;;;;5063247;28;20450;-72
2023/07/17 08:47:15;;;;;;;8.10;2.50;;;19.80;99.90;;;;;;5051952;28;20472;-72
2023/07/17 08:49:42;;;;;;;9.85;3.03;;;19.80;99.90;;;;;;5057563;28;20020;-72
2023/07/17 08:52:11;;;;;;;5.78;2.05;;;20.00;99.90;;;;;;5055408;28;20210;-72
2023/07/17 08:54:36;;;;;;;11.98;3.38;;;20.00;99.90;;;;;;5066493;28;20033;-72
2023/07/17 08:57:04;;;;;;;10.45;2.78;;;20.10;99.90;;;;;;5059208;28;20035;-73
2023/07/17 08:59:31;;;;;;;8.77;2.88;;;19.90;99.90;;;;;;5059281;28;21193;-72
2023/07/17 09:01:57;;;;;;;9.75;3.20;;;19.70;99.90;;;;;;5063347;28;20108;-72
2023/07/17 09:04:25;;;;;;;10.30;3.60;;;19.60;99.90;;;;;;5059446;28;20028;-72
2023/07/17 09:06:51;;;;;;;9.50;3.03;;;19.60;99.90;;;;;;5054330;28;20037;-72
2023/07/17 09:09:18;;;;;;;9.77;3.00;;;19.70;99.90;;;;;;5069770;28;20032;-72
2023/07/17 09:11:44;;;;;;;10.70;2.78;;;19.80;99.90;;;;;;5059973;28;20016;-71
2023/07/17 09:14:10;;;;;;;6.88;2.00;;;20.00;99.90;;;;;;5064393;28;20405;-71
2023/07/17 09:16:38;;;;;;;11.55;2.70;;;20.10;99.90;;;;;;5061553;28;20037;-71
2023/07/17 09:19:04;;;;;;;8.55;2.67;;;20.30;99.90;;;;;;5061250;28;20028;-71
2023/07/17 09:21:30;;;;;;;8.15;2.58;;;20.40;99.90;;;;;;5063061;28;20044;-72
2023/07/17 09:23:57;;;;;;;8.55;2.30;;;20.50;99.90;;;;;;5059533;28;20020;-72
2023/07/17 09:26:26;;;;;;;11.55;3.03;;;20.40;99.90;;;;;;5066076;28;20032;-73
2023/07/17 09:28:58;;;;;;;11.00;2.72;;;20.30;99.90;;;;;;5067466;28;20036;-72
2023/07/17 09:31:31;;;;;;;6.80;2.00;;;20.20;99.90;;;;;;5064940;28;20155;-72
2023/07/17 09:34:12;;;;;;;8.30;2.53;;;20.20;99.90;;;;;;5071578;28;20024;-72
2023/07/17 09:36:37;;;;;;;9.30;2.67;;;20.10;99.90;;;;;;5063587;28;20020;-72
2023/07/17 09:39:05;;;;;;;8.60;2.60;;;20.30;99.90;;;;;;5067455;28;20036;-72
2023/07/17 09:41:30;;;;;;;10.30;2.60;;;20.40;99.90;;;;;;5063860;28;20016;-72
2023/07/17 09:44:03;;;;;;;7.90;2.80;;;20.70;99.90;;;;;;5064948;28;20028;-72
2023/07/17 09:46:30;;;;;;;7.38;2.03;;;20.90;99.90;;;;;;5067010;28;20983;-72
2023/07/17 09:48:57;;;;;;;6.07;2.10;;;21.00;99.90;;;;;;5064692;28;20477;-72
2023/07/17 09:51:23;;;;;;;10.23;2.53;;;21.00;99.90;;;;;;5066115;28;20119;-72
2023/07/17 09:53:49;;;;;;;10.18;2.20;;;20.90;99.90;;;;;;5063014;28;20146;-72
2023/07/17 09:56:18;;;;;;;6.35;2.30;;;20.80;99.90;;;;;;5057319;28;20040;-72
2023/07/17 09:58:55;;;;;;;6.35;2.42;;;20.60;99.90;;;;;;5063051;28;20012;-72
2023/07/17 10:01:25;;;;;;;7.43;2.80;;;20.40;99.90;;;;;;5067138;28;20025;-73
2023/07/17 10:03:51;;;;;;;7.47;2.30;;;20.10;99.90;;;;;;5061905;28;20040;-72
2023/07/17 10:06:20;;;;;;;13.68;2.25;;;19.90;99.90;;;;;;5065681;28;20047;-72
2023/07/17 10:08:49;;;;;;;10.48;2.60;;;19.70;99.90;;;;;;5069413;28;20379;-72
2023/07/17 10:11:18;;;;;;;9.13;2.50;;;19.60;99.90;;;;;;5072622;28;20391;-72
2023/07/17 10:13:45;;;;;;;6.03;2.15;;;19.70;99.90;;;;;;5073061;28;20437;-72
2023/07/17 10:16:13;;;;;;;6.90;2.90;;;19.80;99.90;;;;;;5075663;28;20024;-73
2023/07/17 10:18:50;;;;;;;8.48;1.92;;;20.10;99.90;;;;;;5070815;28;20090;-72
2023/07/17 10:21:18;;;;;;;7.95;2.33;;;20.40;99.90;;;;;;5067257;28;20032;-73
2023/07/17 10:23:45;;;;;;;4.70;1.92;;;20.60;99.90;;;;;;5059491;28;20082;-73
2023/07/17 10:26:13;;;;;;;5.93;1.80;;;20.60;99.90;;;;;;5066680;28;20040;-72
2023/07/17 10:28:40;;;;;;;5.75;1.70;;;20.60;99.90;;;;;;5070033;28;20037;-72
2023/07/17 10:31:25;;;;;;;6.28;2.42;;;20.50;99.30;;;;;;5072956;28;20021;-73
2023/07/17 10:33:55;;;;;;;8.57;2.08;;;20.50;99.40;;;;;;5064210;28;20105;-72
2023/07/17 10:36:44;;;;;;;5.95;1.58;;;20.70;99.30;;;;;;5077684;28;20041;-72
2023/07/17 10:39:18;;;;;;;6.47;1.75;;;20.90;99.00;;;;;;5072149;28;20040;-72
2023/07/17 10:41:44;;;;;;;6.95;2.00;;;21.10;98.80;;;;;;5070776;28;20028;-73
2023/07/17 10:44:17;;;;;;;9.73;1.75;;;21.10;97.70;;;;;;5072488;28;20033;-72
2023/07/17 10:46:43;;;;;;;4.15;1.30;;;21.10;97.10;;;;;;5068408;28;20052;-72
2023/07/17 10:49:11;;;;;;;3.58;1.08;;;21.10;97.00;;;;;;5066953;28;20067;-72
2023/07/17 10:51:41;;;;;;;5.30;1.02;;;21.10;96.90;;;;;;5066204;28;20028;-72
2023/07/17 10:54:08;;;;;;;3.90;1.20;;;21.20;96.70;;;;;;5065071;28;20365;-72
2023/07/17 10:56:34;;;;;;;6.47;1.40;;;21.50;96.60;;;;;;5099056;28;20037;-72
2023/07/17 10:58:59;;;;;;;5.22;1.92;;;21.60;95.70;;;;;;5071090;28;20031;-72
2023/07/17 11:01:25;;;;;;;4.63;1.08;;;21.60;95.20;;;;;;5062147;28;20558;-72
2023/07/17 11:03:53;;;;;;;6.15;1.23;;;21.60;94.80;;;;;;5057986;28;20396;-71
2023/07/17 11:06:20;;;;;;;5.30;1.30;;;21.80;95.20;;;;;;5072241;28;20040;-71
2023/07/17 11:08:49;;;;;;;7.43;1.40;;;21.90;94.70;;;;;;5068698;28;20033;-71
2023/07/17 11:11:16;;;;;;;4.45;1.27;;;22.00;93.70;;;;;;5069212;28;20055;-71
2023/07/17 11:13:46;;;;;;;5.07;1.20;;;21.90;93.00;;;;;;5069998;28;20032;-71
2023/07/17 11:16:12;;;;;;;5.43;1.30;;;21.80;92.50;;;;;;5086328;28;20101;-72
2023/07/17 11:18:52;;;;;;;4.18;1.27;;;21.80;92.70;;;;;;5056774;28;20432;-72
2023/07/17 11:21:20;;;;;;;4.38;1.25;;;22.20;92.60;;;;;;5067144;28;20465;-73
2023/07/17 11:24:02;;;;;;;5.32;1.20;;;22.50;91.80;;;;;;5071495;28;20031;-73
2023/07/17 11:26:31;;;;;;;5.10;1.45;;;22.70;91.00;;;;;;5071607;28;20043;-72
2023/07/17 11:28:59;;;;;;;4.35;1.38;;;23.00;90.40;;;;;;5071839;28;20020;-72
2023/07/17 11:31:25;;;;;;;3.20;1.15;;;23.30;89.40;;;;;;5068372;28;20024;-73
2023/07/17 11:33:58;;;;;;;4.80;1.60;;;23.40;87.80;;;;;;5060927;28;20017;-73
2023/07/17 11:36:39;;;;;;;3.50;1.27;;;23.30;86.30;;;;;;5055579;28;20493;-72
2023/07/17 11:39:13;;;;;;;3.63;1.25;;;23.10;84.40;;;;;;5071256;28;20107;-72
2023/07/17 11:41:46;;;;;;;4.55;1.25;;;23.10;86.20;;;;;;5069725;28;20039;-73
2023/07/17 11:44:14;;;;;;;5.10;1.50;;;23.30;86.70;;;;;;5071571;28;20039;-73
2023/07/17 11:46:40;;;;;;;4.72;1.20;;;23.50;85.00;;;;;;5071115;28;20111;-73
2023/07/17 11:49:06;;;;;;;3.17;1.58;;;23.40;81.30;;;;;;5069284;28;20016;-73
2023/07/17 11:51:32;;;;;;;3.95;1.20;;;23.40;81.70;;;;;;5060683;28;20365;-73
2023/07/17 11:53:57;;;;;;;3.80;1.33;;;23.30;82.50;;;;;;5058101;28;20095;-73
2023/07/17 11:56:39;;;;;;;6.78;2.08;;;23.50;82.20;;;;;;5067980;28;20025;-72
2023/07/17 11:59:06;;;;;;;;;;;23.80;81.70;;;;;;5070538;28;20028;-72
2023/07/17 12:01:33;;;;;;;5.43;1.80;;;23.80;81.20;;;;;;5070780;28;20419;-73
2023/07/17 12:04:34;;;;;;;5.22;2.13;;;24.00;80.90;;;;;;5068273;28;20024;-72
2023/07/17 12:07:02;;;;;;;3.47;1.35;;;24.00;79.80;;;;;;5071320;28;20041;-72
2023/07/17 12:09:29;;;;;;;5.45;1.77;;;23.90;77.10;;;;;;5076230;28;20407;-71
2023/07/17 12:11:54;;;;;;;6.78;1.50;;;23.60;76.50;;;;;;5066325;28;20123;-72
2023/07/17 12:14:20;;;;;;;4.47;1.80;;;23.30;77.30;;;;;;5063935;28;20111;-73
2023/07/17 12:16:46;;;;;;;4.50;1.23;;;23.10;78.50;;;;;;5068335;28;20056;-72
2023/07/17 12:19:12;;;;;;;5.35;1.60;;;23.00;79.00;;;;;;5065964;28;20395;-73
2023/07/17 12:21:37;;;;;;;5.82;1.45;;;22.90;78.50;;;;;;5068418;28;20034;-72
2023/07/17 12:24:04;;;;;;;5.03;1.60;;;22.90;79.40;;;;;;5066640;28;20021;-73
2023/07/17 12:26:29;;;;;;;4.68;1.20;;;23.20;78.70;;;;;;5069731;28;20439;-73
2023/07/17 12:28:55;;;;;;;3.50;1.00;;;23.40;77.30;;;;;;5060357;28;20032;-73
2023/07/17 12:31:20;;;;;;;6.78;1.33;;;23.40;77.00;;;;;;5083285;28;20039;-73
2023/07/17 12:33:46;;;;;;;5.55;1.23;;;23.30;76.40;;;;;;5058301;28;20357;-72
2023/07/17 12:36:11;;;;;;;4.03;1.27;;;23.20;75.70;;;;;;5071142;28;20400;-73
2023/07/17 12:38:37;;;;;;;4.43;1.33;;;22.90;75.80;;;;;;5069884;28;20036;-73
2023/07/17 12:41:03;;;;;;;4.50;1.45;;;22.70;76.60;;;;;;5071285;28;20482;-73